<?xml version="1.0" encoding="UTF-8" standalone="no" ?>
<gpx xmlns="http://www.topografix.com/GPX/1/1" xmlns:xsi="http://www.w3.org/2001/XMLSchema-instance" xsi:schemaLocation="http://www.topografix.com/GPX/1/1 http://www.topografix.com/GPX/1/1/gpx.xsd" version="1.1" creator="VisuGPX - https://www.visugpx.com">
  <metadata>
    <name>PAINBLANC - Marche de printemps 2022 - 7 kms</name>
  </metadata>
  <trk>
    <name><![CDATA[PAINBLANC - Marche de printemps 2022 - 7 kms]]></name>
    <extensions>
      <line xmlns="http://www.topografix.com/GPX/gpx_style/0/2">
        <color>00ff00</color>
        <width>8</width>
          <extensions>
            <sens>1</sens>
          </extensions>
      </line>
    </extensions>
    <trkseg>
      <trkpt lat="47.14923" lon="4.62574">
        <ele>407.31389990767</ele>
        <time>2022-03-24T10:31:57.000Z</time>
      </trkpt>
      <trkpt lat="47.14918" lon="4.62602">
        <ele>407.47241422788</ele>
        <time>2022-03-24T10:31:57.026Z</time>
      </trkpt>
      <trkpt lat="47.14913" lon="4.62624">
        <ele>407.61289807683</ele>
        <time>2022-03-24T10:31:57.073Z</time>
      </trkpt>
      <trkpt lat="47.14899" lon="4.6265">
        <ele>407.82365165373</ele>
        <time>2022-03-24T10:31:57.151Z</time>
      </trkpt>
      <trkpt lat="47.14881" lon="4.62672">
        <ele>408.21808984738</ele>
        <time>2022-03-24T10:31:57.260Z</time>
      </trkpt>
      <trkpt lat="47.14872" lon="4.62675">
        <ele>408.61684909181</ele>
        <time>2022-03-24T10:31:57.381Z</time>
      </trkpt>
      <trkpt lat="47.14859" lon="4.62674">
        <ele>409.04514889397</ele>
        <time>2022-03-24T10:31:57.520Z</time>
      </trkpt>
      <trkpt lat="47.14835" lon="4.62679">
        <ele>409.63748251479</ele>
        <time>2022-03-24T10:31:57.691Z</time>
      </trkpt>
      <trkpt lat="47.14787" lon="4.62707">
        <ele>410.28454763525</ele>
        <time>2022-03-24T10:31:57.931Z</time>
      </trkpt>
      <trkpt lat="47.14751" lon="4.62724">
        <ele>410.93918940081</ele>
        <time>2022-03-24T10:31:58.221Z</time>
      </trkpt>
      <trkpt lat="47.14724" lon="4.62733">
        <ele>411.75937750366</ele>
        <time>2022-03-24T10:31:58.548Z</time>
      </trkpt>
      <trkpt lat="47.14702" lon="4.62737">
        <ele>412.6614314119</ele>
        <time>2022-03-24T10:31:58.905Z</time>
      </trkpt>
      <trkpt lat="47.147" lon="4.62743">
        <ele>413.6146717639</ele>
        <time>2022-03-24T10:31:59.268Z</time>
      </trkpt>
      <trkpt lat="47.14683" lon="4.62752">
        <ele>414.66626768897</ele>
        <time>2022-03-24T10:31:59.655Z</time>
      </trkpt>
      <trkpt lat="47.14667" lon="4.6276">
        <ele>415.84308453995</ele>
        <time>2022-03-24T10:32:00.065Z</time>
      </trkpt>
      <trkpt lat="47.14664" lon="4.62756">
        <ele>416.95616502092</ele>
        <time>2022-03-24T10:32:00.480Z</time>
      </trkpt>
      <trkpt lat="47.14661" lon="4.62759">
        <ele>418.15339672916</ele>
        <time>2022-03-24T10:32:00.900Z</time>
      </trkpt>
      <trkpt lat="47.1465" lon="4.62775">
        <ele>419.64893048205</ele>
        <time>2022-03-24T10:32:01.340Z</time>
      </trkpt>
      <trkpt lat="47.14639" lon="4.62808">
        <ele>421.40456706067</ele>
        <time>2022-03-24T10:32:01.814Z</time>
      </trkpt>
      <trkpt lat="47.14639" lon="4.62825">
        <ele>423.03013126656</ele>
        <time>2022-03-24T10:32:02.303Z</time>
      </trkpt>
      <trkpt lat="47.14642" lon="4.6284">
        <ele>424.60845707803</ele>
        <time>2022-03-24T10:32:02.807Z</time>
      </trkpt>
      <trkpt lat="47.14645" lon="4.62859">
        <ele>426.24468437881</ele>
        <time>2022-03-24T10:32:03.328Z</time>
      </trkpt>
      <trkpt lat="47.14658" lon="4.62917">
        <ele>428.13864463326</ele>
        <time>2022-03-24T10:32:03.905Z</time>
      </trkpt>
      <trkpt lat="47.1466" lon="4.62933">
        <ele>429.67550083236</ele>
        <time>2022-03-24T10:32:04.497Z</time>
      </trkpt>
      <trkpt lat="47.14658" lon="4.62941">
        <ele>431.11547641969</ele>
        <time>2022-03-24T10:32:05.096Z</time>
      </trkpt>
      <trkpt lat="47.14655" lon="4.62948">
        <ele>432.46613296218</ele>
        <time>2022-03-24T10:32:05.703Z</time>
      </trkpt>
      <trkpt lat="47.1465" lon="4.6295">
        <ele>433.72806640375</ele>
        <time>2022-03-24T10:32:06.317Z</time>
      </trkpt>
      <trkpt lat="47.14642" lon="4.62949">
        <ele>434.92679832199</ele>
        <time>2022-03-24T10:32:06.942Z</time>
      </trkpt>
      <trkpt lat="47.14618" lon="4.62938">
        <ele>436.1049731941</ele>
        <time>2022-03-24T10:32:07.600Z</time>
      </trkpt>
      <trkpt lat="47.14605" lon="4.62932">
        <ele>437.20322881742</ele>
        <time>2022-03-24T10:32:08.276Z</time>
      </trkpt>
      <trkpt lat="47.14591" lon="4.6293">
        <ele>438.29314015571</ele>
        <time>2022-03-24T10:32:08.971Z</time>
      </trkpt>
      <trkpt lat="47.14577" lon="4.6293">
        <ele>439.33357244597</ele>
        <time>2022-03-24T10:32:09.685Z</time>
      </trkpt>
      <trkpt lat="47.14555" lon="4.62942">
        <ele>440.45526147101</ele>
        <time>2022-03-24T10:32:10.430Z</time>
      </trkpt>
      <trkpt lat="47.1454" lon="4.62956">
        <ele>441.56844111621</ele>
        <time>2022-03-24T10:32:11.199Z</time>
      </trkpt>
      <trkpt lat="47.14523" lon="4.62964">
        <ele>442.68037702331</ele>
        <time>2022-03-24T10:32:11.992Z</time>
      </trkpt>
      <trkpt lat="47.14505" lon="4.62968">
        <ele>443.79072724276</ele>
        <time>2022-03-24T10:32:12.809Z</time>
      </trkpt>
      <trkpt lat="47.14491" lon="4.62974">
        <ele>444.86400554933</ele>
        <time>2022-03-24T10:32:13.645Z</time>
      </trkpt>
      <trkpt lat="47.14462" lon="4.62988">
        <ele>445.95306838052</ele>
        <time>2022-03-24T10:32:14.522Z</time>
      </trkpt>
      <trkpt lat="47.14438" lon="4.63004">
        <ele>447.09075443761</ele>
        <time>2022-03-24T10:32:15.434Z</time>
      </trkpt>
      <trkpt lat="47.14427" lon="4.63015">
        <ele>448.04154538142</ele>
        <time>2022-03-24T10:32:16.364Z</time>
      </trkpt>
      <trkpt lat="47.14405" lon="4.63038">
        <ele>449.05022305554</ele>
        <time>2022-03-24T10:32:17.330Z</time>
      </trkpt>
      <trkpt lat="47.14384" lon="4.6307">
        <ele>449.99506291655</ele>
        <time>2022-03-24T10:32:18.337Z</time>
      </trkpt>
      <trkpt lat="47.14368" lon="4.63102">
        <ele>450.90816731214</ele>
        <time>2022-03-24T10:32:19.380Z</time>
      </trkpt>
      <trkpt lat="47.1435" lon="4.63147">
        <ele>451.94941834238</ele>
        <time>2022-03-24T10:32:20.470Z</time>
      </trkpt>
      <trkpt lat="47.14329" lon="4.63201">
        <ele>452.85206659391</ele>
        <time>2022-03-24T10:32:21.617Z</time>
      </trkpt>
      <trkpt lat="47.14308" lon="4.63257">
        <ele>453.77303889795</ele>
        <time>2022-03-24T10:32:22.822Z</time>
      </trkpt>
      <trkpt lat="47.14282" lon="4.63319">
        <ele>454.8543249219</ele>
        <time>2022-03-24T10:32:24.093Z</time>
      </trkpt>
      <trkpt lat="47.14277" lon="4.63329">
        <ele>455.78568760993</ele>
        <time>2022-03-24T10:32:25.375Z</time>
      </trkpt>
      <trkpt lat="47.14262" lon="4.63371">
        <ele>456.75145237735</ele>
        <time>2022-03-24T10:32:26.701Z</time>
      </trkpt>
      <trkpt lat="47.14256" lon="4.63397">
        <ele>457.74959339609</ele>
        <time>2022-03-24T10:32:28.052Z</time>
      </trkpt>
      <trkpt lat="47.14247" lon="4.63434">
        <ele>458.79751247815</ele>
        <time>2022-03-24T10:32:29.438Z</time>
      </trkpt>
      <trkpt lat="47.14222" lon="4.63512">
        <ele>459.92676491902</ele>
        <time>2022-03-24T10:32:30.903Z</time>
      </trkpt>
      <trkpt lat="47.14207" lon="4.63558">
        <ele>460.97707280813</ele>
        <time>2022-03-24T10:32:32.414Z</time>
      </trkpt>
      <trkpt lat="47.1419" lon="4.63626">
        <ele>462.13453149864</ele>
        <time>2022-03-24T10:32:33.991Z</time>
      </trkpt>
      <trkpt lat="47.14176" lon="4.63695">
        <ele>463.3308370126</ele>
        <time>2022-03-24T10:32:35.634Z</time>
      </trkpt>
      <trkpt lat="47.14162" lon="4.63746">
        <ele>464.49128138968</ele>
        <time>2022-03-24T10:32:37.327Z</time>
      </trkpt>
      <trkpt lat="47.14103" lon="4.63915">
        <ele>465.57756176954</ele>
        <time>2022-03-24T10:32:39.192Z</time>
      </trkpt>
      <trkpt lat="47.1403" lon="4.64129">
        <ele>466.59484636453</ele>
        <time>2022-03-24T10:32:41.275Z</time>
      </trkpt>
      <trkpt lat="47.14016" lon="4.64184">
        <ele>467.92463321863</ele>
        <time>2022-03-24T10:32:43.412Z</time>
      </trkpt>
      <trkpt lat="47.1401" lon="4.64237">
        <ele>469.29957882461</ele>
        <time>2022-03-24T10:32:45.598Z</time>
      </trkpt>
      <trkpt lat="47.14008" lon="4.64264">
        <ele>470.78429805441</ele>
        <time>2022-03-24T10:32:47.808Z</time>
      </trkpt>
      <trkpt lat="47.14009" lon="4.64314">
        <ele>472.34052159363</ele>
        <time>2022-03-24T10:32:50.064Z</time>
      </trkpt>
      <trkpt lat="47.14009" lon="4.64351">
        <ele>474.13612220944</ele>
        <time>2022-03-24T10:32:52.353Z</time>
      </trkpt>
      <trkpt lat="47.14011" lon="4.64406">
        <ele>476.19680223906</ele>
        <time>2022-03-24T10:32:54.693Z</time>
      </trkpt>
      <trkpt lat="47.14012" lon="4.64438">
        <ele>478.39188971883</ele>
        <time>2022-03-24T10:32:57.062Z</time>
      </trkpt>
      <trkpt lat="47.14019" lon="4.64481">
        <ele>480.91492797271</ele>
        <time>2022-03-24T10:32:59.471Z</time>
      </trkpt>
      <trkpt lat="47.14035" lon="4.64537">
        <ele>483.93725115368</ele>
        <time>2022-03-24T10:33:01.935Z</time>
      </trkpt>
      <trkpt lat="47.14038" lon="4.64555">
        <ele>486.52877429327</ele>
        <time>2022-03-24T10:33:04.416Z</time>
      </trkpt>
      <trkpt lat="47.14041" lon="4.64608">
        <ele>489.02982712216</ele>
        <time>2022-03-24T10:33:06.946Z</time>
      </trkpt>
      <trkpt lat="47.14047" lon="4.64637">
        <ele>491.39078310589</ele>
        <time>2022-03-24T10:33:09.503Z</time>
      </trkpt>
      <trkpt lat="47.14057" lon="4.64683">
        <ele>493.88910620978</ele>
        <time>2022-03-24T10:33:12.104Z</time>
      </trkpt>
      <trkpt lat="47.14047" lon="4.64677">
        <ele>496.27169131684</ele>
        <time>2022-03-24T10:33:14.720Z</time>
      </trkpt>
      <trkpt lat="47.14027" lon="4.64674">
        <ele>498.75464956685</ele>
        <time>2022-03-24T10:33:17.362Z</time>
      </trkpt>
      <trkpt lat="47.14013" lon="4.64676">
        <ele>501.21754108194</ele>
        <time>2022-03-24T10:33:20.023Z</time>
      </trkpt>
      <trkpt lat="47.14002" lon="4.64679">
        <ele>503.66555203648</ele>
        <time>2022-03-24T10:33:22.699Z</time>
      </trkpt>
      <trkpt lat="47.13977" lon="4.64673">
        <ele>506.11690228562</ele>
        <time>2022-03-24T10:33:25.409Z</time>
      </trkpt>
      <trkpt lat="47.13965" lon="4.64672">
        <ele>508.44129291775</ele>
        <time>2022-03-24T10:33:28.135Z</time>
      </trkpt>
      <trkpt lat="47.13953" lon="4.64673">
        <ele>510.67011654214</ele>
        <time>2022-03-24T10:33:30.877Z</time>
      </trkpt>
      <trkpt lat="47.13934" lon="4.64683">
        <ele>512.92117603178</ele>
        <time>2022-03-24T10:33:33.646Z</time>
      </trkpt>
      <trkpt lat="47.1392" lon="4.64699">
        <ele>515.18743889107</ele>
        <time>2022-03-24T10:33:36.439Z</time>
      </trkpt>
      <trkpt lat="47.139" lon="4.64726">
        <ele>517.67561978858</ele>
        <time>2022-03-24T10:33:39.268Z</time>
      </trkpt>
      <trkpt lat="47.13892" lon="4.64743">
        <ele>519.97145705502</ele>
        <time>2022-03-24T10:33:42.116Z</time>
      </trkpt>
      <trkpt lat="47.13888" lon="4.64748">
        <ele>522.02415562478</ele>
        <time>2022-03-24T10:33:44.971Z</time>
      </trkpt>
      <trkpt lat="47.13877" lon="4.64753">
        <ele>523.96684157782</ele>
        <time>2022-03-24T10:33:47.841Z</time>
      </trkpt>
      <trkpt lat="47.13847" lon="4.64772">
        <ele>525.9352356364</ele>
        <time>2022-03-24T10:33:50.755Z</time>
      </trkpt>
      <trkpt lat="47.1384" lon="4.64777">
        <ele>527.65705421059</ele>
        <time>2022-03-24T10:33:53.679Z</time>
      </trkpt>
      <trkpt lat="47.13832" lon="4.64787">
        <ele>529.27434278856</ele>
        <time>2022-03-24T10:33:56.617Z</time>
      </trkpt>
      <trkpt lat="47.13831" lon="4.6479">
        <ele>530.7217938459</ele>
        <time>2022-03-24T10:33:59.558Z</time>
      </trkpt>
      <trkpt lat="47.13808" lon="4.6481">
        <ele>532.1210863821</ele>
        <time>2022-03-24T10:34:02.535Z</time>
      </trkpt>
      <trkpt lat="47.13778" lon="4.64831">
        <ele>533.36671143512</ele>
        <time>2022-03-24T10:34:05.556Z</time>
      </trkpt>
      <trkpt lat="47.13774" lon="4.64844">
        <ele>534.46312967269</ele>
        <time>2022-03-24T10:34:08.590Z</time>
      </trkpt>
      <trkpt lat="47.13788" lon="4.64841">
        <ele>536.06335055394</ele>
        <time>2022-03-24T10:34:11.643Z</time>
      </trkpt>
      <trkpt lat="47.1381" lon="4.64843">
        <ele>536.71959327186</ele>
        <time>2022-03-24T10:34:14.725Z</time>
      </trkpt>
      <trkpt lat="47.13824" lon="4.64845">
        <ele>537.17038416446</ele>
        <time>2022-03-24T10:34:17.826Z</time>
      </trkpt>
      <trkpt lat="47.13846" lon="4.64849">
        <ele>537.42976375655</ele>
        <time>2022-03-24T10:34:20.957Z</time>
      </trkpt>
      <trkpt lat="47.13906" lon="4.64905">
        <ele>537.55260200073</ele>
        <time>2022-03-24T10:34:24.183Z</time>
      </trkpt>
      <trkpt lat="47.13948" lon="4.64948">
        <ele>537.53954067669</ele>
        <time>2022-03-24T10:34:27.477Z</time>
      </trkpt>
      <trkpt lat="47.13994" lon="4.64985">
        <ele>537.27773678483</ele>
        <time>2022-03-24T10:34:30.841Z</time>
      </trkpt>
      <trkpt lat="47.13998" lon="4.64987">
        <ele>536.77882029368</ele>
        <time>2022-03-24T10:34:34.211Z</time>
      </trkpt>
      <trkpt lat="47.14027" lon="4.64994">
        <ele>536.02277906622</ele>
        <time>2022-03-24T10:34:37.620Z</time>
      </trkpt>
      <trkpt lat="47.14051" lon="4.64996">
        <ele>535.1629457325</ele>
        <time>2022-03-24T10:34:41.061Z</time>
      </trkpt>
      <trkpt lat="47.14059" lon="4.64999">
        <ele>534.2020231679</ele>
        <time>2022-03-24T10:34:44.513Z</time>
      </trkpt>
      <trkpt lat="47.14073" lon="4.6501">
        <ele>533.09832449709</ele>
        <time>2022-03-24T10:34:47.986Z</time>
      </trkpt>
      <trkpt lat="47.14082" lon="4.65022">
        <ele>531.82176949545</ele>
        <time>2022-03-24T10:34:51.475Z</time>
      </trkpt>
      <trkpt lat="47.14113" lon="4.65072">
        <ele>530.26584724714</ele>
        <time>2022-03-24T10:34:55.026Z</time>
      </trkpt>
      <trkpt lat="47.14119" lon="4.65095">
        <ele>528.94527320506</ele>
        <time>2022-03-24T10:34:58.599Z</time>
      </trkpt>
      <trkpt lat="47.1412" lon="4.65122">
        <ele>527.66684097697</ele>
        <time>2022-03-24T10:35:02.197Z</time>
      </trkpt>
      <trkpt lat="47.14116" lon="4.65155">
        <ele>526.30223792203</ele>
        <time>2022-03-24T10:35:05.825Z</time>
      </trkpt>
      <trkpt lat="47.1412" lon="4.65167">
        <ele>524.93904181479</ele>
        <time>2022-03-24T10:35:09.465Z</time>
      </trkpt>
      <trkpt lat="47.14127" lon="4.65172">
        <ele>523.6368656693</ele>
        <time>2022-03-24T10:35:13.116Z</time>
      </trkpt>
      <trkpt lat="47.14134" lon="4.65174">
        <ele>522.40790251191</ele>
        <time>2022-03-24T10:35:16.776Z</time>
      </trkpt>
      <trkpt lat="47.14153" lon="4.65163">
        <ele>521.16891134104</ele>
        <time>2022-03-24T10:35:20.464Z</time>
      </trkpt>
      <trkpt lat="47.1416" lon="4.65161">
        <ele>520.08691418089</ele>
        <time>2022-03-24T10:35:24.161Z</time>
      </trkpt>
      <trkpt lat="47.14159" lon="4.65177">
        <ele>519.14587729173</ele>
        <time>2022-03-24T10:35:27.873Z</time>
      </trkpt>
      <trkpt lat="47.14158" lon="4.65214">
        <ele>518.28845369461</ele>
        <time>2022-03-24T10:35:31.618Z</time>
      </trkpt>
      <trkpt lat="47.14159" lon="4.65239">
        <ele>517.57758318055</ele>
        <time>2022-03-24T10:35:35.386Z</time>
      </trkpt>
      <trkpt lat="47.14161" lon="4.65257">
        <ele>516.97441114007</ele>
        <time>2022-03-24T10:35:39.171Z</time>
      </trkpt>
      <trkpt lat="47.14175" lon="4.65261">
        <ele>516.45131537344</ele>
        <time>2022-03-24T10:35:42.975Z</time>
      </trkpt>
      <trkpt lat="47.14191" lon="4.65265">
        <ele>516.05554471223</ele>
        <time>2022-03-24T10:35:46.801Z</time>
      </trkpt>
      <trkpt lat="47.14214" lon="4.65271">
        <ele>515.78746511976</ele>
        <time>2022-03-24T10:35:50.658Z</time>
      </trkpt>
      <trkpt lat="47.14258" lon="4.65281">
        <ele>515.55779686914</ele>
        <time>2022-03-24T10:35:54.574Z</time>
      </trkpt>
      <trkpt lat="47.14286" lon="4.65275">
        <ele>515.42518876787</ele>
        <time>2022-03-24T10:35:58.528Z</time>
      </trkpt>
      <trkpt lat="47.14316" lon="4.65265">
        <ele>515.32094078041</ele>
        <time>2022-03-24T10:36:02.523Z</time>
      </trkpt>
      <trkpt lat="47.14351" lon="4.65255">
        <ele>515.42037522497</ele>
        <time>2022-03-24T10:36:06.565Z</time>
      </trkpt>
      <trkpt lat="47.14374" lon="4.65248">
        <ele>515.50009574279</ele>
        <time>2022-03-24T10:36:10.639Z</time>
      </trkpt>
      <trkpt lat="47.14383" lon="4.65243">
        <ele>515.60652915878</ele>
        <time>2022-03-24T10:36:14.726Z</time>
      </trkpt>
      <trkpt lat="47.14461" lon="4.65175">
        <ele>515.84977048319</ele>
        <time>2022-03-24T10:36:18.934Z</time>
      </trkpt>
      <trkpt lat="47.14466" lon="4.65164">
        <ele>515.95934831583</ele>
        <time>2022-03-24T10:36:23.154Z</time>
      </trkpt>
      <trkpt lat="47.14472" lon="4.65154">
        <ele>516.03998605121</ele>
        <time>2022-03-24T10:36:27.386Z</time>
      </trkpt>
      <trkpt lat="47.14487" lon="4.65135">
        <ele>516.15090533473</ele>
        <time>2022-03-24T10:36:31.644Z</time>
      </trkpt>
      <trkpt lat="47.14495" lon="4.65115">
        <ele>516.13756972471</ele>
        <time>2022-03-24T10:36:35.923Z</time>
      </trkpt>
      <trkpt lat="47.14521" lon="4.65062">
        <ele>516.06186736719</ele>
        <time>2022-03-24T10:36:40.262Z</time>
      </trkpt>
      <trkpt lat="47.14543" lon="4.65014">
        <ele>516.04959874035</ele>
        <time>2022-03-24T10:36:44.653Z</time>
      </trkpt>
      <trkpt lat="47.14558" lon="4.6497">
        <ele>515.90331027408</ele>
        <time>2022-03-24T10:36:49.089Z</time>
      </trkpt>
      <trkpt lat="47.14566" lon="4.64953">
        <ele>515.71725540919</ele>
        <time>2022-03-24T10:36:53.544Z</time>
      </trkpt>
      <trkpt lat="47.14575" lon="4.64936">
        <ele>515.46118179967</ele>
        <time>2022-03-24T10:36:58.019Z</time>
      </trkpt>
      <trkpt lat="47.14584" lon="4.64923">
        <ele>515.1287807354</ele>
        <time>2022-03-24T10:37:02.510Z</time>
      </trkpt>
      <trkpt lat="47.14603" lon="4.64907">
        <ele>514.74424101172</ele>
        <time>2022-03-24T10:37:07.031Z</time>
      </trkpt>
      <trkpt lat="47.14619" lon="4.64894">
        <ele>514.28956096563</ele>
        <time>2022-03-24T10:37:11.576Z</time>
      </trkpt>
      <trkpt lat="47.14638" lon="4.64873">
        <ele>513.73479860292</ele>
        <time>2022-03-24T10:37:16.153Z</time>
      </trkpt>
      <trkpt lat="47.14668" lon="4.64819">
        <ele>512.9221742194</ele>
        <time>2022-03-24T10:37:20.793Z</time>
      </trkpt>
      <trkpt lat="47.14689" lon="4.64776">
        <ele>512.21831005076</ele>
        <time>2022-03-24T10:37:25.481Z</time>
      </trkpt>
      <trkpt lat="47.14701" lon="4.64756">
        <ele>511.55185409273</ele>
        <time>2022-03-24T10:37:30.194Z</time>
      </trkpt>
      <trkpt lat="47.14715" lon="4.64741">
        <ele>510.90621878554</ele>
        <time>2022-03-24T10:37:34.930Z</time>
      </trkpt>
      <trkpt lat="47.14724" lon="4.64731">
        <ele>510.15785120446</ele>
        <time>2022-03-24T10:37:39.681Z</time>
      </trkpt>
      <trkpt lat="47.1474" lon="4.64703">
        <ele>509.26759964769</ele>
        <time>2022-03-24T10:37:44.465Z</time>
      </trkpt>
      <trkpt lat="47.1475" lon="4.64676">
        <ele>508.33135799003</ele>
        <time>2022-03-24T10:37:49.277Z</time>
      </trkpt>
      <trkpt lat="47.14758" lon="4.64634">
        <ele>507.25609078315</ele>
        <time>2022-03-24T10:37:54.129Z</time>
      </trkpt>
      <trkpt lat="47.14758" lon="4.64624">
        <ele>506.43835470586</ele>
        <time>2022-03-24T10:37:58.990Z</time>
      </trkpt>
      <trkpt lat="47.14762" lon="4.64613">
        <ele>505.69121062153</ele>
        <time>2022-03-24T10:38:03.862Z</time>
      </trkpt>
      <trkpt lat="47.14782" lon="4.64593">
        <ele>505.04248422443</ele>
        <time>2022-03-24T10:38:08.766Z</time>
      </trkpt>
      <trkpt lat="47.14804" lon="4.64561">
        <ele>504.52256539325</ele>
        <time>2022-03-24T10:38:13.712Z</time>
      </trkpt>
      <trkpt lat="47.1485" lon="4.64513">
        <ele>504.13454444123</ele>
        <time>2022-03-24T10:38:18.733Z</time>
      </trkpt>
      <trkpt lat="47.14867" lon="4.64497">
        <ele>503.71411445327</ele>
        <time>2022-03-24T10:38:23.781Z</time>
      </trkpt>
      <trkpt lat="47.14917" lon="4.64452">
        <ele>503.23139386438</ele>
        <time>2022-03-24T10:38:28.907Z</time>
      </trkpt>
      <trkpt lat="47.14954" lon="4.6442">
        <ele>502.90398063746</ele>
        <time>2022-03-24T10:38:34.091Z</time>
      </trkpt>
      <trkpt lat="47.1498" lon="4.64391">
        <ele>502.78584761484</ele>
        <time>2022-03-24T10:38:39.318Z</time>
      </trkpt>
      <trkpt lat="47.15002" lon="4.64361">
        <ele>502.66609450371</ele>
        <time>2022-03-24T10:38:44.585Z</time>
      </trkpt>
      <trkpt lat="47.15011" lon="4.64347">
        <ele>502.53577534281</ele>
        <time>2022-03-24T10:38:49.870Z</time>
      </trkpt>
      <trkpt lat="47.15021" lon="4.6434">
        <ele>502.54570191418</ele>
        <time>2022-03-24T10:38:55.170Z</time>
      </trkpt>
      <trkpt lat="47.15035" lon="4.6433">
        <ele>502.61438131195</ele>
        <time>2022-03-24T10:39:00.490Z</time>
      </trkpt>
      <trkpt lat="47.15043" lon="4.64321">
        <ele>502.60692380218</ele>
        <time>2022-03-24T10:39:05.824Z</time>
      </trkpt>
      <trkpt lat="47.15051" lon="4.64312">
        <ele>502.57638326231</ele>
        <time>2022-03-24T10:39:11.171Z</time>
      </trkpt>
      <trkpt lat="47.1506" lon="4.64296">
        <ele>502.44349932418</ele>
        <time>2022-03-24T10:39:16.537Z</time>
      </trkpt>
      <trkpt lat="47.15071" lon="4.64282">
        <ele>502.4535318207</ele>
        <time>2022-03-24T10:39:21.923Z</time>
      </trkpt>
      <trkpt lat="47.151" lon="4.64257">
        <ele>502.437714404</ele>
        <time>2022-03-24T10:39:27.354Z</time>
      </trkpt>
      <trkpt lat="47.15121" lon="4.64243">
        <ele>502.38799555241</ele>
        <time>2022-03-24T10:39:32.815Z</time>
      </trkpt>
      <trkpt lat="47.15145" lon="4.64231">
        <ele>502.34082994222</ele>
        <time>2022-03-24T10:39:38.310Z</time>
      </trkpt>
      <trkpt lat="47.15205" lon="4.64215">
        <ele>502.28933964473</ele>
        <time>2022-03-24T10:39:43.886Z</time>
      </trkpt>
      <trkpt lat="47.15224" lon="4.64209">
        <ele>502.07178216136</ele>
        <time>2022-03-24T10:39:49.488Z</time>
      </trkpt>
      <trkpt lat="47.1524" lon="4.642">
        <ele>501.71290164629</ele>
        <time>2022-03-24T10:39:55.113Z</time>
      </trkpt>
      <trkpt lat="47.15273" lon="4.64181">
        <ele>501.16661110178</ele>
        <time>2022-03-24T10:40:00.786Z</time>
      </trkpt>
      <trkpt lat="47.15312" lon="4.64161">
        <ele>500.34194303143</ele>
        <time>2022-03-24T10:40:06.514Z</time>
      </trkpt>
      <trkpt lat="47.15325" lon="4.64157">
        <ele>499.57699141421</ele>
        <time>2022-03-24T10:40:12.259Z</time>
      </trkpt>
      <trkpt lat="47.15396" lon="4.64162">
        <ele>498.70580818468</ele>
        <time>2022-03-24T10:40:18.099Z</time>
      </trkpt>
      <trkpt lat="47.15414" lon="4.64164">
        <ele>497.57637383062</ele>
        <time>2022-03-24T10:40:23.963Z</time>
      </trkpt>
      <trkpt lat="47.15428" lon="4.64165">
        <ele>496.17889913542</ele>
        <time>2022-03-24T10:40:29.846Z</time>
      </trkpt>
      <trkpt lat="47.15434" lon="4.64155">
        <ele>494.43380468459</ele>
        <time>2022-03-24T10:40:35.741Z</time>
      </trkpt>
      <trkpt lat="47.15458" lon="4.64129">
        <ele>492.24390746143</ele>
        <time>2022-03-24T10:40:41.676Z</time>
      </trkpt>
      <trkpt lat="47.15469" lon="4.6412">
        <ele>490.03079786012</ele>
        <time>2022-03-24T10:40:47.628Z</time>
      </trkpt>
      <trkpt lat="47.15509" lon="4.641">
        <ele>487.48776780121</ele>
        <time>2022-03-24T10:40:53.636Z</time>
      </trkpt>
      <trkpt lat="47.15539" lon="4.64087">
        <ele>484.71221597301</ele>
        <time>2022-03-24T10:40:59.686Z</time>
      </trkpt>
      <trkpt lat="47.15591" lon="4.64066">
        <ele>481.49688559003</ele>
        <time>2022-03-24T10:41:05.808Z</time>
      </trkpt>
      <trkpt lat="47.15622" lon="4.64063">
        <ele>478.14901488207</ele>
        <time>2022-03-24T10:41:11.971Z</time>
      </trkpt>
      <trkpt lat="47.1563" lon="4.64054">
        <ele>474.46013517821</ele>
        <time>2022-03-24T10:41:18.148Z</time>
      </trkpt>
      <trkpt lat="47.15635" lon="4.64045">
        <ele>470.52174248484</ele>
        <time>2022-03-24T10:41:24.335Z</time>
      </trkpt>
      <trkpt lat="47.15639" lon="4.64024">
        <ele>466.18907724309</ele>
        <time>2022-03-24T10:41:30.542Z</time>
      </trkpt>
      <trkpt lat="47.15639" lon="4.64005">
        <ele>461.75366591114</ele>
        <time>2022-03-24T10:41:36.766Z</time>
      </trkpt>
      <trkpt lat="47.15641" lon="4.63954">
        <ele>457.0106695492</ele>
        <time>2022-03-24T10:41:43.037Z</time>
      </trkpt>
      <trkpt lat="47.15646" lon="4.63926">
        <ele>452.25379877555</ele>
        <time>2022-03-24T10:41:49.334Z</time>
      </trkpt>
      <trkpt lat="47.15651" lon="4.63895">
        <ele>447.22651609741</ele>
        <time>2022-03-24T10:41:55.660Z</time>
      </trkpt>
      <trkpt lat="47.15665" lon="4.63838">
        <ele>441.99519917638</ele>
        <time>2022-03-24T10:42:02.041Z</time>
      </trkpt>
      <trkpt lat="47.15668" lon="4.63826">
        <ele>436.97994858576</ele>
        <time>2022-03-24T10:42:08.434Z</time>
      </trkpt>
      <trkpt lat="47.15685" lon="4.63755">
        <ele>421.21052154133</ele>
        <time>2022-03-24T10:42:14.895Z</time>
      </trkpt>
      <trkpt lat="47.15712" lon="4.6363">
        <ele>415.20056873844</ele>
        <time>2022-03-24T10:42:21.476Z</time>
      </trkpt>
      <trkpt lat="47.15741" lon="4.63488">
        <ele>409.80071094179</ele>
        <time>2022-03-24T10:42:28.192Z</time>
      </trkpt>
      <trkpt lat="47.15778" lon="4.63324">
        <ele>404.90880906519</ele>
        <time>2022-03-24T10:42:35.065Z</time>
      </trkpt>
      <trkpt lat="47.15716" lon="4.63275">
        <ele>401.28834515256</ele>
        <time>2022-03-24T10:42:42.032Z</time>
      </trkpt>
      <trkpt lat="47.15706" lon="4.63264">
        <ele>398.09695601466</ele>
        <time>2022-03-24T10:42:49.016Z</time>
      </trkpt>
      <trkpt lat="47.15694" lon="4.63235">
        <ele>395.31349319195</ele>
        <time>2022-03-24T10:42:56.030Z</time>
      </trkpt>
      <trkpt lat="47.15681" lon="4.63189">
        <ele>392.90740126679</ele>
        <time>2022-03-24T10:43:03.090Z</time>
      </trkpt>
      <trkpt lat="47.15677" lon="4.63166">
        <ele>390.948703024</ele>
        <time>2022-03-24T10:43:10.171Z</time>
      </trkpt>
      <trkpt lat="47.15682" lon="4.63122">
        <ele>389.39901053108</ele>
        <time>2022-03-24T10:43:17.293Z</time>
      </trkpt>
      <trkpt lat="47.15686" lon="4.63079">
        <ele>388.18885579797</ele>
        <time>2022-03-24T10:43:24.454Z</time>
      </trkpt>
      <trkpt lat="47.15686" lon="4.63063">
        <ele>387.21696944097</ele>
        <time>2022-03-24T10:43:31.630Z</time>
      </trkpt>
      <trkpt lat="47.15683" lon="4.63045">
        <ele>386.49925635367</ele>
        <time>2022-03-24T10:43:38.823Z</time>
      </trkpt>
      <trkpt lat="47.15658" lon="4.6305">
        <ele>386.12204672793</ele>
        <time>2022-03-24T10:43:46.049Z</time>
      </trkpt>
      <trkpt lat="47.15648" lon="4.63051">
        <ele>386.0277509108</ele>
        <time>2022-03-24T10:43:53.289Z</time>
      </trkpt>
      <trkpt lat="47.15633" lon="4.63049">
        <ele>386.13375760351</ele>
        <time>2022-03-24T10:44:00.549Z</time>
      </trkpt>
      <trkpt lat="47.1561" lon="4.63039">
        <ele>386.57032172128</ele>
        <time>2022-03-24T10:44:07.841Z</time>
      </trkpt>
      <trkpt lat="47.15588" lon="4.63025">
        <ele>387.1686410059</ele>
        <time>2022-03-24T10:44:15.165Z</time>
      </trkpt>
      <trkpt lat="47.15553" lon="4.62989">
        <ele>387.95062590658</ele>
        <time>2022-03-24T10:44:22.546Z</time>
      </trkpt>
      <trkpt lat="47.15538" lon="4.62971">
        <ele>388.84191657621</ele>
        <time>2022-03-24T10:44:29.953Z</time>
      </trkpt>
      <trkpt lat="47.15509" lon="4.62936">
        <ele>389.9035255305</ele>
        <time>2022-03-24T10:44:37.410Z</time>
      </trkpt>
      <trkpt lat="47.15493" lon="4.6292">
        <ele>391.00583961546</ele>
        <time>2022-03-24T10:44:44.893Z</time>
      </trkpt>
      <trkpt lat="47.15479" lon="4.62914">
        <ele>392.1494735291</ele>
        <time>2022-03-24T10:44:52.395Z</time>
      </trkpt>
      <trkpt lat="47.1546" lon="4.62909">
        <ele>393.38740545984</ele>
        <time>2022-03-24T10:44:59.923Z</time>
      </trkpt>
      <trkpt lat="47.15447" lon="4.62905">
        <ele>394.68698246772</ele>
        <time>2022-03-24T10:45:07.469Z</time>
      </trkpt>
      <trkpt lat="47.15444" lon="4.62902">
        <ele>395.96778711281</ele>
        <time>2022-03-24T10:45:15.020Z</time>
      </trkpt>
      <trkpt lat="47.15429" lon="4.62882">
        <ele>397.29459121301</ele>
        <time>2022-03-24T10:45:22.598Z</time>
      </trkpt>
      <trkpt lat="47.15415" lon="4.62868">
        <ele>398.68473432371</ele>
        <time>2022-03-24T10:45:30.198Z</time>
      </trkpt>
      <trkpt lat="47.15394" lon="4.62853">
        <ele>400.03411567051</ele>
        <time>2022-03-24T10:45:37.829Z</time>
      </trkpt>
      <trkpt lat="47.15361" lon="4.62833">
        <ele>401.34422878497</ele>
        <time>2022-03-24T10:45:45.508Z</time>
      </trkpt>
      <trkpt lat="47.15301" lon="4.62796">
        <ele>402.61096403614</ele>
        <time>2022-03-24T10:45:53.274Z</time>
      </trkpt>
      <trkpt lat="47.15265" lon="4.62775">
        <ele>403.74585843456</ele>
        <time>2022-03-24T10:46:01.092Z</time>
      </trkpt>
      <trkpt lat="47.15243" lon="4.62761">
        <ele>404.74534513313</ele>
        <time>2022-03-24T10:46:08.942Z</time>
      </trkpt>
      <trkpt lat="47.15235" lon="4.62753">
        <ele>405.52384162658</ele>
        <time>2022-03-24T10:46:16.804Z</time>
      </trkpt>
      <trkpt lat="47.15227" lon="4.62744">
        <ele>406.19537509928</ele>
        <time>2022-03-24T10:46:24.680Z</time>
      </trkpt>
      <trkpt lat="47.15207" lon="4.62719">
        <ele>406.78034310224</ele>
        <time>2022-03-24T10:46:32.591Z</time>
      </trkpt>
      <trkpt lat="47.1519" lon="4.62706">
        <ele>407.34791596675</ele>
        <time>2022-03-24T10:46:40.528Z</time>
      </trkpt>
      <trkpt lat="47.15163" lon="4.62692">
        <ele>407.74105358587</ele>
        <time>2022-03-24T10:46:48.503Z</time>
      </trkpt>
      <trkpt lat="47.15104" lon="4.6268">
        <ele>407.96942189404</ele>
        <time>2022-03-24T10:46:56.557Z</time>
      </trkpt>
      <trkpt lat="47.15064" lon="4.6267">
        <ele>408.41638789931</ele>
        <time>2022-03-24T10:47:04.665Z</time>
      </trkpt>
      <trkpt lat="47.15033" lon="4.62659">
        <ele>408.96284830505</ele>
        <time>2022-03-24T10:47:12.816Z</time>
      </trkpt>
      <trkpt lat="47.14995" lon="4.62646">
        <ele>409.51232370078</ele>
        <time>2022-03-24T10:47:21.019Z</time>
      </trkpt>
      <trkpt lat="47.14947" lon="4.62632">
        <ele>410.22965696645</ele>
        <time>2022-03-24T10:47:29.287Z</time>
      </trkpt>
      <trkpt lat="47.14913" lon="4.62624">
        <ele>407.61289807683</ele>
        <time>2022-03-24T10:47:37.601Z</time>
      </trkpt>
      <trkpt lat="47.14918" lon="4.62602">
        <ele>407.47241422788</ele>
        <time>2022-03-24T10:47:45.936Z</time>
      </trkpt>
      <trkpt lat="47.14923" lon="4.62572">
        <ele>410.39886647199</ele>
        <time>2022-03-24T10:47:54.299Z</time>
      </trkpt>
      <trkpt lat="47.14923" lon="4.62568">
        <ele>410.32716394618</ele>
        <time>2022-03-24T10:48:02.666Z</time>
      </trkpt>
    </trkseg>
  </trk>
</gpx>